Time;durP1;ratioP1;P1;durP2;ratioP2;P2;SDS_P1;SDS_P2;PMS_P1;PMS_P2;Temp;Humidity;BMP_temperature;BMP_pressure;BME280_temperature;BME280_humidity;BME280_pressure;Samples;Min_cycle;Max_cycle;Signal;HPM_P1;HPM_P2
2023/08/14 00:01:40;;;;;;;9.77;7.63;;;;;;;19.48;68.86;101507.28;5010987;28;20026;-66
2023/08/14 00:04:06;;;;;;;14.90;8.40;;;;;;;19.42;69.59;101499.19;5011241;28;20037;-66
2023/08/14 00:06:31;;;;;;;12.45;8.15;;;;;;;19.42;69.24;101497.22;5009588;28;20072;-66
2023/08/14 00:08:56;;;;;;;12.88;8.95;;;;;;;19.37;69.49;101500.94;5011892;28;20026;-66
2023/08/14 00:11:22;;;;;;;10.02;7.75;;;;;;;19.36;69.21;101501.22;5010616;28;20436;-66
2023/08/14 00:13:55;;;;;;;11.88;8.05;;;;;;;19.38;69.19;101501.75;4996972;28;20046;-66
2023/08/14 00:16:24;;;;;;;9.75;7.13;;;;;;;19.31;69.23;101506.91;5010965;28;20029;-66
2023/08/14 00:18:50;;;;;;;11.45;7.53;;;;;;;19.28;69.15;101499.88;5009141;28;20022;-66
2023/08/14 00:21:15;;;;;;;9.55;7.60;;;;;;;19.31;69.24;101501.25;5010242;28;20037;-67
2023/08/14 00:23:41;;;;;;;10.50;7.57;;;;;;;19.28;69.43;101497.06;5009534;28;20112;-66
2023/08/14 00:26:06;;;;;;;10.13;7.75;;;;;;;19.23;68.99;101496.28;4992176;28;20030;-66
2023/08/14 00:28:32;;;;;;;10.38;7.63;;;;;;;19.20;69.00;101492.06;5007380;28;20041;-66
2023/08/14 00:30:58;;;;;;;11.88;8.65;;;;;;;19.16;69.33;101484.53;5012737;28;20030;-66
2023/08/14 00:33:23;;;;;;;13.65;9.27;;;;;;;19.14;69.39;101490.47;5014401;28;20034;-66
2023/08/14 00:35:48;;;;;;;11.85;9.25;;;;;;;19.14;69.53;101482.00;5014180;28;20191;-66
2023/08/14 00:38:14;;;;;;;11.70;9.02;;;;;;;19.14;69.07;101490.47;5014493;28;20531;-65
2023/08/14 00:40:39;;;;;;;10.27;8.65;;;;;;;19.11;68.90;101491.03;5009957;28;22011;-65
2023/08/14 00:43:04;;;;;;;12.85;9.38;;;;;;;19.10;69.32;101487.38;4997132;28;20157;-66
2023/08/14 00:45:30;;;;;;;12.10;8.50;;;;;;;19.04;69.25;101488.56;5007563;28;20030;-66
2023/08/14 00:47:56;;;;;;;13.15;9.35;;;;;;;19.06;69.38;101493.88;5014198;28;20121;-66
2023/08/14 00:50:22;;;;;;;13.38;9.25;;;;;;;19.05;69.10;101490.22;5013740;28;20029;-65
2023/08/14 00:52:51;;;;;;;9.68;8.55;;;;;;;19.06;69.04;101494.75;5014896;28;20034;-65
2023/08/14 00:55:22;;;;;;;11.20;8.27;;;;;;;19.01;69.12;101488.31;5013278;28;20115;-66
2023/08/14 00:57:49;;;;;;;12.93;8.25;;;;;;;18.98;69.51;101481.31;5008479;28;20477;-65
2023/08/14 01:00:15;;;;;;;9.82;7.90;;;;;;;18.96;69.43;101475.13;5006309;28;20133;-66
2023/08/14 01:02:42;;;;;;;11.50;8.52;;;;;;;18.97;69.41;101475.97;5013816;28;20108;-65
2023/08/14 01:05:07;;;;;;;12.45;8.98;;;;;;;19.01;69.09;101485.50;5014621;28;20021;-66
2023/08/14 01:07:32;;;;;;;11.18;7.93;;;;;;;18.94;69.10;101471.75;5013148;28;20079;-65
2023/08/14 01:09:58;;;;;;;12.48;8.35;;;;;;;18.95;69.09;101464.19;5013125;28;20018;-65
2023/08/14 01:12:37;;;;;;;9.02;7.70;;;;;;;18.93;68.90;101469.25;5013274;28;20034;-65
2023/08/14 01:15:08;;;;;;;11.82;8.50;;;;;;;18.88;69.21;101473.78;5010696;28;20096;-66
2023/08/14 01:17:36;;;;;;;10.18;8.30;;;;;;;18.83;69.54;101462.59;5006700;28;20037;-65
2023/08/14 01:20:04;;;;;;;11.15;7.82;;;;;;;18.80;69.66;101471.59;5011298;28;20026;-66
2023/08/14 01:22:55;;;;;;;12.88;7.95;;;;;;;18.87;69.66;101460.84;5012869;28;20045;-65
2023/08/14 01:25:26;;;;;;;10.15;7.15;;;;;;;18.87;69.60;101458.03;5010742;28;20164;-66
2023/08/14 01:27:53;;;;;;;9.65;7.45;;;;;;;18.83;70.10;101461.75;5004549;28;20436;-66
2023/08/14 01:30:22;;;;;;;11.18;7.10;;;;;;;18.79;69.97;101455.03;5005852;28;20034;-66
2023/08/14 01:32:47;;;;;;;10.23;7.07;;;;;;;18.79;69.88;101455.03;5013040;28;20076;-66
2023/08/14 01:35:14;;;;;;;10.23;7.15;;;;;;;18.76;69.78;101453.63;5006598;28;20030;-66
2023/08/14 01:38:02;;;;;;;8.07;6.47;;;;;;;18.82;69.37;101455.28;5011067;28;20117;-66
2023/08/14 01:40:49;;;;;;;9.68;7.03;;;;;;;18.76;69.49;101459.25;5012763;28;20042;-66
2023/08/14 01:43:21;;;;;;;10.98;6.50;;;;;;;18.73;69.42;101457.03;5008102;28;20038;-66
2023/08/14 01:45:47;;;;;;;11.52;6.45;;;;;;;18.73;69.32;101444.94;5012030;28;20025;-66
2023/08/14 01:48:14;;;;;;;10.77;6.30;;;;;;;18.70;69.35;101435.13;5013907;28;20034;-66
2023/08/14 01:50:40;;;;;;;10.82;5.93;;;;;;;18.68;69.38;101428.09;5005570;28;20081;-66
2023/08/14 01:53:06;;;;;;;9.30;6.70;;;;;;;18.67;69.66;101424.44;4993885;28;20034;-66
2023/08/14 01:55:32;;;;;;;8.30;6.47;;;;;;;18.68;69.58;101434.56;5011724;28;20038;-66
2023/08/14 01:57:57;;;;;;;7.07;6.32;;;;;;;18.70;69.49;101431.44;5011207;28;20030;-66
2023/08/14 02:00:22;;;;;;;9.13;6.35;;;;;;;18.63;69.84;101428.97;5011677;28;20385;-66
2023/08/14 02:02:48;;;;;;;10.30;6.35;;;;;;;18.64;69.70;101423.06;5013636;28;20397;-66
2023/08/14 02:05:13;;;;;;;7.72;6.18;;;;;;;18.62;69.81;101422.50;5010683;28;20444;-66
2023/08/14 02:07:39;;;;;;;10.32;6.63;;;;;;;18.58;69.58;101424.22;5010137;28;20481;-66
2023/08/14 02:10:05;;;;;;;9.77;5.50;;;;;;;18.59;69.97;101414.66;5012792;28;20097;-66
2023/08/14 02:12:30;;;;;;;6.97;6.10;;;;;;;18.54;69.95;101420.31;5012213;28;20041;-66
2023/08/14 02:14:56;;;;;;;8.32;5.70;;;;;;;18.55;69.94;101418.31;5012363;28;20036;-66
2023/08/14 02:17:22;;;;;;;8.15;6.10;;;;;;;18.55;70.08;101421.13;5012217;28;20034;-66
2023/08/14 02:19:47;;;;;;;10.02;6.43;;;;;;;18.55;69.88;101415.53;5009519;28;20462;-66
2023/08/14 02:22:13;;;;;;;7.00;5.38;;;;;;;18.58;69.65;101412.13;5012918;28;20034;-66
2023/08/14 02:24:38;;;;;;;8.38;5.25;;;;;;;18.54;69.88;101416.66;5004732;28;20268;-66
2023/08/14 02:27:03;;;;;;;7.47;5.43;;;;;;;18.52;70.12;101416.13;4995683;28;20100;-65
2023/08/14 02:29:28;;;;;;;8.23;5.55;;;;;;;18.55;70.37;101409.91;5012030;28;20120;-66
2023/08/14 02:31:54;;;;;;;9.77;5.45;;;;;;;18.53;70.18;101412.19;5007515;28;20030;-66
2023/08/14 02:34:42;;;;;;;7.35;5.10;;;;;;;18.58;70.29;101407.34;5010248;28;20061;-66
2023/08/14 02:37:08;;;;;;;9.50;6.35;;;;;;;18.53;70.10;101409.38;5003226;28;20064;-66
2023/08/14 02:39:33;;;;;;;10.48;6.07;;;;;;;18.51;69.93;101401.25;5008230;28;20434;-66
2023/08/14 02:41:58;;;;;;;8.32;5.93;;;;;;;18.42;69.97;101396.53;5011682;28;20041;-66
2023/08/14 02:44:24;;;;;;;9.85;6.05;;;;;;;18.39;69.87;101398.81;5007433;28;20054;-66
2023/08/14 02:46:49;;;;;;;8.82;5.45;;;;;;;18.38;69.95;101394.28;5008308;28;20469;-66
2023/08/14 02:49:14;;;;;;;7.18;5.90;;;;;;;18.31;69.83;101391.00;5010486;28;20038;-66
2023/08/14 02:51:40;;;;;;;9.82;5.50;;;;;;;18.37;70.28;101392.63;5011256;28;20033;-65
2023/08/14 02:54:05;;;;;;;7.10;5.68;;;;;;;18.35;69.53;101399.66;5007846;28;20089;-65
2023/08/14 02:56:30;;;;;;;6.90;5.70;;;;;;;18.35;69.36;101394.03;5010619;28;20444;-66
2023/08/14 02:58:56;;;;;;;6.45;5.18;;;;;;;18.34;69.79;101389.53;5010711;28;20034;-66
2023/08/14 03:01:21;;;;;;;8.32;5.40;;;;;;;18.30;69.89;101394.91;5000096;28;20117;-67
2023/08/14 03:03:46;;;;;;;5.93;5.25;;;;;;;18.22;69.97;101387.09;5012461;28;20529;-66
2023/08/14 03:06:11;;;;;;;7.80;5.47;;;;;;;18.23;69.96;101388.78;5010829;28;20151;-66
2023/08/14 03:08:37;;;;;;;7.18;4.70;;;;;;;18.25;69.71;101394.13;5009590;28;20129;-66
2023/08/14 03:11:02;;;;;;;5.70;4.65;;;;;;;18.24;69.51;101390.47;5011245;28;20028;-66
2023/08/14 03:13:27;;;;;;;7.43;5.18;;;;;;;18.19;69.97;101386.84;5010926;28;20051;-66
2023/08/14 03:15:53;;;;;;;7.28;4.78;;;;;;;18.22;69.88;101389.06;5006564;28;20048;-66
2023/08/14 03:18:18;;;;;;;5.13;4.63;;;;;;;18.25;69.77;101394.13;5008934;28;20414;-66
2023/08/14 03:20:43;;;;;;;7.85;4.55;;;;;;;18.20;69.39;101406.25;5009753;28;20049;-66
2023/08/14 03:23:08;;;;;;;7.22;4.72;;;;;;;18.19;69.62;101398.09;5009088;28;20038;-66
2023/08/14 03:25:34;;;;;;;8.95;4.90;;;;;;;18.14;69.66;101393.34;5007732;28;20129;-67
2023/08/14 03:27:59;;;;;;;6.45;5.03;;;;;;;18.11;70.00;101391.09;5008092;28;20404;-66
2023/08/14 03:30:24;;;;;;;6.82;4.70;;;;;;;18.09;69.94;101397.03;5008185;28;20038;-66
2023/08/14 03:32:50;;;;;;;5.88;5.10;;;;;;;18.10;70.04;101393.06;5007980;28;21059;-66
2023/08/14 03:35:16;;;;;;;7.47;5.03;;;;;;;18.05;70.13;101386.66;5004676;28;20069;-66
2023/08/14 03:37:41;;;;;;;7.70;5.40;;;;;;;18.05;70.28;101386.66;5010170;28;20025;-66
2023/08/14 03:40:08;;;;;;;8.23;5.70;;;;;;;18.04;70.17;101391.44;5011396;28;20036;-65
2023/08/14 03:42:33;;;;;;;8.32;5.30;;;;;;;18.07;70.26;101396.47;5010514;28;20088;-66
2023/08/14 03:44:58;;;;;;;7.78;5.10;;;;;;;18.03;70.53;101395.38;5009193;28;20026;-65
2023/08/14 03:47:23;;;;;;;8.75;5.25;;;;;;;18.02;70.39;101398.47;5007339;28;20422;-65
2023/08/14 03:49:49;;;;;;;8.23;4.93;;;;;;;17.99;70.39;101391.47;5003412;28;20042;-66
2023/08/14 03:52:14;;;;;;;8.48;4.70;;;;;;;17.99;70.49;101399.06;5010167;28;20022;-66
2023/08/14 03:54:39;;;;;;;5.55;4.90;;;;;;;17.95;70.77;101404.41;5010032;28;20927;-65
2023/08/14 03:57:05;;;;;;;7.93;5.72;;;;;;;17.97;70.37;101395.72;5009863;28;20393;-66
2023/08/14 03:59:30;;;;;;;9.02;4.90;;;;;;;17.97;70.45;101390.09;5010834;28;20484;-65
2023/08/14 04:01:55;;;;;;;6.13;5.00;;;;;;;17.93;70.46;101398.25;5009078;28;20397;-65
2023/08/14 04:04:21;;;;;;;5.10;4.35;;;;;;;17.91;70.08;101389.25;5013860;28;20076;-66
2023/08/14 04:06:47;;;;;;;6.07;4.85;;;;;;;17.88;70.45;101396.31;5000778;28;20045;-66
2023/08/14 04:09:13;;;;;;;8.50;5.35;;;;;;;17.86;70.49;101395.75;5015138;28;20028;-66
2023/08/14 04:11:39;;;;;;;8.77;5.03;;;;;;;17.85;70.35;101394.06;5013085;28;20459;-66
2023/08/14 04:14:05;;;;;;;10.30;5.05;;;;;;;17.85;70.51;101390.44;5013647;28;20033;-66
2023/08/14 04:16:43;;;;;;;8.23;5.05;;;;;;;17.83;70.62;101382.28;5013744;28;20036;-66
2023/08/14 04:19:13;;;;;;;8.20;5.63;;;;;;;17.80;70.92;101390.44;5014571;28;20045;-66
2023/08/14 04:21:39;;;;;;;7.63;5.07;;;;;;;17.81;70.41;101386.53;5011207;28;20560;-66
2023/08/14 04:24:04;;;;;;;5.97;5.13;;;;;;;17.83;70.89;101376.66;5010772;28;20041;-66
2023/08/14 04:26:30;;;;;;;6.63;5.10;;;;;;;17.82;70.91;101377.81;5014531;28;20481;-66
2023/08/14 04:28:55;;;;;;;8.80;5.40;;;;;;;17.80;71.06;101371.66;5015116;28;20058;-66
2023/08/14 04:31:20;;;;;;;6.50;5.15;;;;;;;17.80;70.98;101373.59;5015472;28;20030;-66
2023/08/14 04:33:46;;;;;;;5.80;4.97;;;;;;;17.81;70.83;101364.91;5014442;28;20034;-66
2023/08/14 04:36:11;;;;;;;6.97;4.65;;;;;;;17.80;71.20;101357.59;5013892;28;20064;-66
2023/08/14 04:38:36;;;;;;;8.60;5.47;;;;;;;17.79;71.12;101367.13;5012515;28;20036;-67
2023/08/14 04:41:02;;;;;;;12.73;6.20;;;;;;;17.79;71.30;101361.53;4997579;28;20422;-66
2023/08/14 04:43:31;;;;;;;7.53;5.38;;;;;;;17.79;71.16;101357.88;4998376;28;20103;-66
2023/08/14 04:45:57;;;;;;;8.10;5.30;;;;;;;17.80;71.61;101360.41;5013677;28;20037;-66
2023/08/14 04:48:22;;;;;;;7.63;5.75;;;;;;;17.81;71.67;101364.06;5015106;28;20030;-66
2023/08/14 04:50:47;;;;;;;8.52;5.75;;;;;;;17.80;71.74;101357.59;5015104;28;20525;-66
2023/08/14 04:53:13;;;;;;;8.60;5.65;;;;;;;17.80;71.61;101352.00;5014315;28;20056;-66
2023/08/14 04:55:38;;;;;;;7.03;5.50;;;;;;;17.82;71.88;101355.34;5014912;28;20029;-66
2023/08/14 04:58:03;;;;;;;8.52;5.57;;;;;;;17.84;71.88;101350.28;5002465;28;20053;-66
2023/08/14 05:00:29;;;;;;;9.85;5.47;;;;;;;17.81;71.96;101341.59;4999780;28;20500;-66
2023/08/14 05:02:54;;;;;;;7.80;5.47;;;;;;;17.83;72.05;101328.09;5010387;28;20044;-66
2023/08/14 05:05:19;;;;;;;8.60;5.82;;;;;;;17.82;72.39;101337.66;5014804;28;20105;-66
2023/08/14 05:07:45;;;;;;;8.38;5.82;;;;;;;17.84;72.68;101341.00;5013849;28;20029;-66
2023/08/14 05:10:10;;;;;;;7.03;6.30;;;;;;;17.89;72.81;101339.00;5014465;28;20030;-66
2023/08/14 05:12:36;;;;;;;9.48;6.55;;;;;;;17.88;73.26;101331.72;5014527;28;20076;-66
2023/08/14 05:15:01;;;;;;;8.55;6.72;;;;;;;17.94;73.04;101328.88;5012879;28;20090;-66
2023/08/14 05:17:26;;;;;;;11.07;6.78;;;;;;;17.97;73.48;101325.50;5012640;28;20460;-66
2023/08/14 05:19:52;;;;;;;9.23;6.88;;;;;;;17.94;73.80;101324.09;5006170;28;20030;-66
2023/08/14 05:22:19;;;;;;;11.13;6.95;;;;;;;18.02;73.87;101328.25;5006223;28;20037;-66
2023/08/14 05:24:44;;;;;;;10.27;7.50;;;;;;;18.03;74.07;101329.91;5010636;28;20053;-66
2023/08/14 05:27:10;;;;;;;9.05;7.65;;;;;;;18.08;74.14;101327.09;5014083;28;20104;-66
2023/08/14 05:29:35;;;;;;;9.00;7.32;;;;;;;18.09;74.39;101328.78;5013462;28;20026;-66
2023/08/14 05:32:00;;;;;;;10.52;7.25;;;;;;;18.12;74.42;101336.63;5014370;28;20040;-66
2023/08/14 05:34:26;;;;;;;10.35;7.40;;;;;;;18.13;74.83;101338.28;5013989;28;20080;-66
2023/08/14 05:36:51;;;;;;;9.75;7.45;;;;;;;18.19;74.70;101339.91;5012557;28;20120;-66
2023/08/14 05:39:18;;;;;;;9.70;7.88;;;;;;;18.19;74.82;101342.72;5011294;28;20034;-66
2023/08/14 05:41:43;;;;;;;10.95;8.10;;;;;;;18.20;74.83;101350.03;4994774;28;20033;-66
2023/08/14 05:44:09;;;;;;;10.70;8.40;;;;;;;18.19;74.98;101353.97;4993571;28;20397;-66
2023/08/14 05:46:34;;;;;;;10.82;8.50;;;;;;;18.20;75.31;101349.22;4994303;28;20073;-66
2023/08/14 05:48:59;;;;;;;12.85;7.80;;;;;;;18.21;75.42;101351.72;4994337;28;20100;-66
2023/08/14 05:51:24;;;;;;;10.88;8.43;;;;;;;18.25;75.45;101354.78;4995970;28;20027;-66
2023/08/14 05:53:50;;;;;;;11.10;8.43;;;;;;;18.23;75.50;101355.06;5013672;28;20038;-66
2023/08/14 05:56:15;;;;;;;13.23;8.50;;;;;;;18.24;75.79;101367.16;5006746;28;20088;-65
2023/08/14 05:58:40;;;;;;;11.98;8.68;;;;;;;18.24;76.08;101368.00;5012290;28;20088;-65
2023/08/14 06:01:06;;;;;;;11.70;8.20;;;;;;;18.25;75.86;101374.44;5012838;28;20461;-66
2023/08/14 06:03:31;;;;;;;9.73;8.18;;;;;;;18.26;75.80;101370.50;5012970;28;20402;-66
2023/08/14 06:05:56;;;;;;;8.65;7.75;;;;;;;18.26;76.44;101365.72;5013716;28;20125;-66
2023/08/14 06:08:21;;;;;;;10.68;7.72;;;;;;;18.28;76.56;101363.47;5013435;28;20029;-65
2023/08/14 06:10:47;;;;;;;11.20;8.07;;;;;;;18.29;77.00;101379.19;5012672;28;20437;-66
2023/08/14 06:13:12;;;;;;;9.52;7.30;;;;;;;18.33;76.87;101390.69;5010242;28;20061;-65
2023/08/14 06:15:38;;;;;;;9.32;8.00;;;;;;;18.33;76.90;101388.72;5011267;28;20113;-66
2023/08/14 06:18:03;;;;;;;11.20;7.88;;;;;;;18.34;77.02;101376.34;5012818;28;20018;-65
2023/08/14 06:20:29;;;;;;;10.02;7.53;;;;;;;18.35;77.28;101369.59;5013237;28;20049;-65
2023/08/14 06:22:54;;;;;;;10.15;7.90;;;;;;;18.38;77.00;101379.41;5013341;28;20034;-66
2023/08/14 06:25:20;;;;;;;13.50;8.25;;;;;;;18.38;76.79;101369.00;5012292;28;20053;-66
2023/08/14 06:27:46;;;;;;;12.88;7.68;;;;;;;18.38;76.84;101363.38;5012943;28;20037;-66
2023/08/14 06:30:12;;;;;;;13.25;7.72;;;;;;;18.48;76.86;101356.00;5005710;28;20489;-66
2023/08/14 06:32:38;;;;;;;14.32;8.70;;;;;;;18.54;77.10;101366.06;4998952;28;20030;-67
2023/08/14 06:35:05;;;;;;;13.95;7.90;;;;;;;18.68;76.82;101358.63;5011025;28;20076;-66
2023/08/14 06:37:31;;;;;;;10.18;7.32;;;;;;;18.84;76.00;101359.34;5012927;28;20397;-66
2023/08/14 06:39:56;;;;;;;12.13;8.50;;;;;;;18.98;75.97;101354.72;5007264;28;20045;-66
2023/08/14 06:42:22;;;;;;;11.20;7.75;;;;;;;19.08;75.56;101360.22;4995335;28;20022;-66
2023/08/14 06:44:47;;;;;;;10.95;7.25;;;;;;;19.18;75.10;101355.59;5012939;28;20022;-66
2023/08/14 06:47:12;;;;;;;12.05;7.28;;;;;;;19.18;75.37;101347.16;5008994;28;20030;-66
2023/08/14 06:49:38;;;;;;;13.10;7.22;;;;;;;19.20;75.10;101350.53;5008466;28;20033;-66
2023/08/14 06:52:04;;;;;;;10.40;7.50;;;;;;;19.19;75.44;101355.31;5011704;28;20030;-66
2023/08/14 06:54:29;;;;;;;14.88;6.70;;;;;;;19.18;74.69;101352.78;5011888;28;20045;-66
2023/08/14 06:56:54;;;;;;;14.02;6.32;;;;;;;19.27;74.86;101351.84;5012441;28;20026;-66
2023/08/14 06:59:19;;;;;;;13.70;6.07;;;;;;;19.43;74.01;101348.84;5010485;28;20397;-67
2023/08/14 07:01:45;;;;;;;12.07;6.47;;;;;;;19.51;73.43;101346.19;5011820;28;20057;-66
2023/08/14 07:04:11;;;;;;;12.98;5.82;;;;;;;19.62;72.45;101349.75;5004902;28;20040;-66
2023/08/14 07:06:36;;;;;;;15.43;5.45;;;;;;;19.74;71.69;101349.31;5004015;28;20034;-66
2023/08/14 07:09:02;;;;;;;12.85;5.65;;;;;;;19.88;71.32;101353.03;5012250;28;20030;-66
2023/08/14 07:11:27;;;;;;;11.50;5.57;;;;;;;19.94;70.81;101345.38;5012386;28;20088;-66
2023/08/14 07:13:54;;;;;;;8.65;4.93;;;;;;;19.92;70.57;101347.63;4997121;28;20034;-66
2023/08/14 07:16:20;;;;;;;8.73;4.97;;;;;;;19.85;70.62;101351.69;5012576;28;20033;-66
2023/08/14 07:18:46;;;;;;;9.38;4.80;;;;;;;19.81;70.53;101349.78;5006537;28;20041;-66
2023/08/14 07:21:11;;;;;;;10.80;4.45;;;;;;;19.77;70.30;101340.28;5004013;28;20546;-65
2023/08/14 07:23:36;;;;;;;8.60;4.13;;;;;;;19.71;69.62;101342.31;5012218;28;20026;-66
2023/08/14 07:26:11;;;;;;;9.70;4.60;;;;;;;19.66;69.43;101342.38;5010012;28;20100;-66
2023/08/14 07:28:40;;;;;;;10.85;4.50;;;;;;;19.68;69.96;101356.97;5008139;28;20054;-65
2023/08/14 07:31:06;;;;;;;10.50;3.95;;;;;;;19.78;70.57;101361.66;5010560;28;20022;-65
2023/08/14 07:33:31;;;;;;;7.20;3.70;;;;;;;19.80;69.34;101365.81;4998215;28;20038;-67
2023/08/14 07:35:58;;;;;;;11.10;3.65;;;;;;;19.78;68.82;101368.13;5010954;28;20053;-65
2023/08/14 07:38:25;;;;;;;10.50;4.07;;;;;;;19.75;68.28;101368.72;5000582;28;20105;-66
2023/08/14 07:40:50;;;;;;;8.90;3.70;;;;;;;19.83;68.11;101379.31;5009054;28;20481;-65
2023/08/14 07:43:16;;;;;;;10.88;3.90;;;;;;;19.89;67.54;101384.91;5013531;28;20061;-65
2023/08/14 07:45:42;;;;;;;9.43;4.03;;;;;;;19.99;67.63;101382.75;5015218;28;20030;-66
2023/08/14 07:48:08;;;;;;;6.95;3.53;;;;;;;20.09;66.89;101368.53;5012309;28;20675;-66
2023/08/14 07:50:33;;;;;;;8.30;3.55;;;;;;;20.24;66.85;101363.78;5013651;28;20060;-67
2023/08/14 07:52:58;;;;;;;10.20;3.45;;;;;;;20.34;66.42;101361.63;5009420;28;20045;-66
2023/08/14 07:55:24;;;;;;;6.95;3.53;;;;;;;20.54;66.95;101365.28;5011982;28;20061;-65
2023/08/14 07:57:55;;;;;;;8.52;3.70;;;;;;;20.65;66.17;101363.97;5015667;28;20038;-64
2023/08/14 08:00:21;;;;;;;8.18;3.67;;;;;;;20.66;64.20;101360.00;5016652;28;20409;-64
2023/08/14 08:02:46;;;;;;;5.05;2.70;;;;;;;20.71;63.18;101359.06;5016886;28;20065;-64
2023/08/14 08:05:13;;;;;;;7.35;3.08;;;;;;;20.79;62.77;101364.03;5015589;28;20034;-63
2023/08/14 08:07:38;;;;;;;9.98;2.88;;;;;;;20.86;62.90;101360.78;5017157;28;20080;-64
2023/08/14 08:10:04;;;;;;;7.03;3.13;;;;;;;21.04;63.07;101365.53;5006937;28;20026;-64
2023/08/14 08:12:29;;;;;;;6.57;2.50;;;;;;;21.22;63.50;101356.16;5011826;28;20045;-63
2023/08/14 08:14:55;;;;;;;8.15;3.53;;;;;;;21.27;62.68;101353.22;4998106;28;20106;-64
2023/08/14 08:17:20;;;;;;;8.25;2.80;;;;;;;21.31;61.55;101348.63;4997337;28;20038;-64
2023/08/14 08:19:46;;;;;;;5.40;2.67;;;;;;;21.50;63.10;101350.53;5001170;28;20500;-65
2023/08/14 08:22:12;;;;;;;5.35;2.42;;;;;;;21.60;62.67;101350.31;5015813;28;20030;-63
2023/08/14 08:24:39;;;;;;;5.97;2.45;;;;;;;21.71;61.98;101357.41;5015344;28;20556;-62
2023/08/14 08:27:04;;;;;;;5.43;2.50;;;;;;;21.87;61.70;101346.59;5012807;28;20101;-63
2023/08/14 08:29:30;;;;;;;5.18;2.20;;;;;;;22.00;60.90;101347.72;5008176;28;20056;-63
2023/08/14 08:31:55;;;;;;;8.32;2.40;;;;;;;22.03;60.29;101344.25;5013306;28;20094;-63
2023/08/14 08:34:20;;;;;;;5.53;2.30;;;;;;;22.09;60.19;101339.34;5014802;28;20033;-63
2023/08/14 08:36:45;;;;;;;6.50;2.08;;;;;;;22.17;58.86;101335.78;5012803;28;20041;-63
2023/08/14 08:39:11;;;;;;;7.00;2.30;;;;;;;22.22;58.73;101329.97;5009067;28;20040;-63
2023/08/14 08:41:38;;;;;;;5.78;1.80;;;;;;;22.32;58.65;101332.53;5015350;28;21736;-64
2023/08/14 08:44:21;;;;;;;7.65;2.53;;;;;;;22.42;59.86;101326.63;5017489;28;20517;-66
2023/08/14 08:46:57;;;;;;;4.93;2.03;;;;;;;22.46;58.28;101330.50;5012106;28;20034;-73
2023/08/14 08:49:24;;;;;;;7.50;2.22;;;;;;;22.49;57.60;101329.84;4998399;28;20037;-69
2023/08/14 08:51:51;;;;;;;5.15;1.70;;;;;;;22.57;56.93;101333.06;5001896;28;20060;-69
2023/08/14 08:54:17;;;;;;;5.63;1.77;;;;;;;22.62;55.78;101319.63;5009988;28;20038;-66
2023/08/14 08:56:43;;;;;;;6.75;1.80;;;;;;;22.75;56.02;101320.69;5007007;28;20026;-65
2023/08/14 08:59:11;;;;;;;4.30;1.70;;;;;;;22.79;55.94;101331.06;5006711;28;20037;-66
2023/08/14 09:01:36;;;;;;;6.35;2.15;;;;;;;22.91;55.19;101323.97;5002483;28;20038;-64
2023/08/14 09:04:02;;;;;;;6.15;2.20;;;;;;;22.97;54.99;101326.34;4999044;28;20500;-62
2023/08/14 09:06:28;;;;;;;8.13;1.77;;;;;;;22.90;53.36;101325.09;5003355;28;20034;-63
2023/08/14 09:08:53;;;;;;;4.65;1.70;;;;;;;23.02;54.96;101322.53;5007036;28;20042;-65
2023/08/14 09:11:19;;;;;;;7.88;2.00;;;;;;;23.11;56.68;101326.25;5008316;28;20499;-65
2023/08/14 09:13:45;;;;;;;4.68;2.00;;;;;;;23.10;52.99;101335.06;5009545;28;20045;-64
2023/08/14 09:16:14;;;;;;;6.10;1.67;;;;;;;23.13;53.42;101323.06;5013655;28;20026;-65
2023/08/14 09:18:42;;;;;;;4.03;1.58;;;;;;;23.05;53.03;101323.88;5012490;28;20045;-65
2023/08/14 09:21:07;;;;;;;4.40;1.83;;;;;;;23.14;53.39;101319.91;5012900;28;20033;-65
2023/08/14 09:23:33;;;;;;;5.82;1.95;;;;;;;23.19;53.57;101316.94;5004155;28;20038;-66
2023/08/14 09:25:59;;;;;;;6.60;2.13;;;;;;;23.35;53.95;101319.34;5002460;28;20026;-65
2023/08/14 09:28:24;;;;;;;4.15;1.85;;;;;;;23.46;54.52;101323.50;5009316;28;20052;-65
2023/08/14 09:30:50;;;;;;;6.57;1.92;;;;;;;23.45;52.66;101324.69;5011642;28;20038;-66
2023/08/14 09:33:15;;;;;;;5.53;1.85;;;;;;;23.48;52.86;101332.53;5002465;28;20034;-66
2023/08/14 09:35:40;;;;;;;6.45;2.25;;;;;;;23.53;52.52;101338.88;5009121;28;20103;-67
2023/08/14 09:38:05;;;;;;;3.33;1.52;;;;;;;23.53;50.71;101347.38;5013520;28;20029;-67
2023/08/14 09:40:32;;;;;;;4.45;1.52;;;;;;;23.55;51.27;101349.06;5012904;28;20026;-67
2023/08/14 09:42:58;;;;;;;4.38;1.52;;;;;;;23.57;51.16;101349.56;5010702;28;20069;-67
2023/08/14 09:45:27;;;;;;;7.80;1.98;;;;;;;23.53;49.78;101349.38;5012068;28;20418;-69
2023/08/14 09:48:00;;;;;;;5.57;1.73;;;;;;;23.54;50.47;101348.22;5008133;28;20042;-69
2023/08/14 09:50:28;;;;;;;4.05;1.60;;;;;;;23.60;50.38;101343.22;5003229;28;20104;-65
2023/08/14 09:52:58;;;;;;;5.65;1.95;;;;;;;23.71;50.06;101339.78;5008843;28;20038;-66
2023/08/14 09:55:26;;;;;;;4.85;1.63;;;;;;;23.73;50.01;101333.78;5001873;28;20163;-65
2023/08/14 09:57:53;;;;;;;5.57;1.92;;;;;;;23.92;50.96;101330.66;5007682;28;20038;-65
2023/08/14 10:00:18;;;;;;;5.75;1.65;;;;;;;23.92;48.46;101322.97;5008162;28;20030;-65
2023/08/14 10:02:46;;;;;;;7.55;1.90;;;;;;;23.95;48.71;101313.81;5009750;28;20196;-65
2023/08/14 10:05:12;;;;;;;9.45;1.98;;;;;;;23.93;48.66;101323.78;5011159;28;20038;-65
2023/08/14 10:07:39;;;;;;;6.65;1.90;;;;;;;23.97;48.66;101319.13;4997531;28;20445;-65
2023/08/14 10:10:07;;;;;;;9.30;2.17;;;;;;;23.99;49.02;101309.13;5009647;28;20038;-68
2023/08/14 10:12:39;;;;;;;5.88;1.88;;;;;;;24.02;49.74;101315.31;5009026;28;20036;-70
2023/08/14 10:15:08;;;;;;;3.17;1.75;;;;;;;24.05;49.16;101312.66;5007311;28;20365;-71
2023/08/14 10:17:53;;;;;;;6.65;1.70;;;;;;;24.11;48.83;101291.44;4999375;28;20032;-66
2023/08/14 10:20:22;;;;;;;6.38;1.80;;;;;;;24.09;47.31;101288.13;5008039;28;20393;-66
2023/08/14 10:22:49;;;;;;;6.95;1.73;;;;;;;24.08;47.70;101272.25;5006441;28;20593;-66
2023/08/14 10:25:14;;;;;;;4.97;1.70;;;;;;;24.10;48.52;101267.09;5006166;28;20038;-66
2023/08/14 10:27:40;;;;;;;7.32;1.65;;;;;;;24.22;48.45;101260.75;4996347;28;20026;-66
2023/08/14 10:30:07;;;;;;;3.63;1.65;;;;;;;24.17;47.04;101272.25;4995493;28;20517;-66
2023/08/14 10:32:34;;;;;;;3.90;1.70;;;;;;;24.21;46.70;101259.09;5008161;28;20037;-66
2023/08/14 10:35:00;;;;;;;5.90;2.15;;;;;;;24.27;47.11;101254.91;5011006;28;20030;-66
2023/08/14 10:37:26;;;;;;;5.68;1.80;;;;;;;24.28;47.60;101255.72;5006908;28;20026;-66
2023/08/14 10:39:56;;;;;;;5.57;2.05;;;;;;;24.26;46.18;101253.25;5006497;28;20053;-66
2023/08/14 10:42:22;;;;;;;5.65;1.80;;;;;;;24.34;47.61;101251.56;5008742;28;20025;-67
2023/08/14 10:44:49;;;;;;;6.82;2.08;;;;;;;24.49;48.95;101251.06;5000271;28;20051;-67
2023/08/14 10:47:14;;;;;;;5.82;1.88;;;;;;;24.45;46.67;101250.06;5007971;28;20038;-66
2023/08/14 10:49:48;;;;;;;5.07;1.80;;;;;;;24.52;47.91;101258.03;5010505;28;20034;-66
2023/08/14 10:52:20;;;;;;;6.05;1.88;;;;;;;24.57;47.54;101250.19;5006660;28;20409;-67
2023/08/14 10:54:51;;;;;;;5.13;1.52;;;;;;;24.56;46.21;101257.03;5002770;28;20041;-66
2023/08/14 10:57:17;;;;;;;5.00;2.28;;;;;;;24.53;46.56;101252.03;5004207;28;20029;-66
2023/08/14 10:59:55;;;;;;;5.43;2.00;;;;;;;24.59;47.21;101259.19;5007782;28;20496;-65
2023/08/14 11:02:20;;;;;;;7.07;2.33;;;;;;;24.64;46.83;101246.81;5009047;28;20037;-68
2023/08/14 11:05:21;;;;;;;4.55;1.83;;;;;;;24.67;48.07;101258.31;5009139;28;20044;-69
2023/08/14 11:07:57;;;;;;;2.53;1.50;;;;;;;24.70;47.47;101262.50;4917326;29;20087;-69
2023/08/14 11:10:25;;;;;;;7.88;2.05;;;;;;;24.73;46.02;101268.34;4991269;28;20545;-68
2023/08/14 11:12:50;;;;;;;5.03;1.60;;;;;;;24.74;45.73;101270.00;5009627;28;20138;-68
2023/08/14 11:15:16;;;;;;;3.25;1.55;;;;;;;24.78;47.08;101264.47;5010326;28;20132;-69
2023/08/14 11:17:41;;;;;;;5.45;1.83;;;;;;;24.85;47.61;101272.47;5011434;28;20455;-65
2023/08/14 11:20:10;;;;;;;4.70;1.80;;;;;;;24.78;46.88;101257.97;5008810;28;20099;-65